createdAt,value
2019-01-22T00:00:00.024Z,-5.20
2019-01-22T00:02:26.343Z,-5.30
2019-01-22T00:04:52.527Z,-5.30
2019-01-22T00:07:18.625Z,-5.20
2019-01-22T00:09:44.721Z,-5.10
2019-01-22T00:12:10.954Z,-5.00
2019-01-22T00:14:37.209Z,-5.20
2019-01-22T00:17:03.373Z,-5.10
2019-01-22T00:19:29.545Z,-5.00
2019-01-22T00:21:55.715Z,-5.00
2019-01-22T00:24:21.937Z,-5.00
2019-01-22T00:26:48.369Z,-4.80
2019-01-22T00:29:14.577Z,-4.80
2019-01-22T00:31:40.710Z,-4.70
2019-01-22T00:34:06.963Z,-4.70
2019-01-22T00:36:33.161Z,-4.60
2019-01-22T00:38:59.413Z,-4.70
2019-01-22T00:41:25.600Z,-4.70
2019-01-22T00:43:51.995Z,-4.70
2019-01-22T00:46:18.245Z,-4.70
2019-01-22T00:48:44.470Z,-4.80
2019-01-22T00:51:10.681Z,-5.00
2019-01-22T00:53:36.783Z,-5.00
2019-01-22T00:56:03.337Z,-5.20
2019-01-22T00:58:29.868Z,-5.30
2019-01-22T01:00:56.372Z,-5.20
2019-01-22T01:03:22.542Z,-5.00
2019-01-22T01:05:48.794Z,-5.00
2019-01-22T01:08:15.006Z,-5.10
2019-01-22T01:10:41.252Z,-5.10
2019-01-22T01:13:07.580Z,-5.30
2019-01-22T01:15:33.806Z,-5.40
2019-01-22T01:18:00.309Z,-5.20
2019-01-22T01:20:26.638Z,-5.20
2019-01-22T01:22:52.831Z,-5.40
2019-01-22T01:25:20.364Z,-5.40
2019-01-22T01:27:46.591Z,-5.50
2019-01-22T01:30:15.759Z,-5.50
2019-01-22T01:32:42.679Z,-5.50
2019-01-22T01:35:09.304Z,-5.30
2019-01-22T01:37:35.552Z,-5.30
2019-01-22T01:40:05.315Z,-5.50
2019-01-22T01:42:31.616Z,-5.40
2019-01-22T01:44:57.852Z,-5.20
2019-01-22T01:47:24.027Z,-5.10
2019-01-22T01:49:50.118Z,-5.00
2019-01-22T01:52:16.730Z,-4.90
2019-01-22T01:54:42.974Z,-4.80
2019-01-22T01:57:09.218Z,-4.70
2019-01-22T01:59:35.429Z,-4.60
2019-01-22T02:02:01.612Z,-4.60
2019-01-22T02:04:27.838Z,-4.60
2019-01-22T02:06:54.170Z,-4.50
2019-01-22T02:09:20.677Z,-4.50
2019-01-22T02:11:46.880Z,-4.50
2019-01-22T02:14:14.418Z,-4.40
2019-01-22T02:16:47.705Z,-4.50
2019-01-22T02:19:26.312Z,-4.50
2019-01-22T02:22:08.910Z,-4.40
2019-01-22T02:24:44.768Z,-4.40
2019-01-22T02:27:48.258Z,-4.60
2019-01-22T02:30:23.905Z,-4.80
2019-01-22T02:33:11.958Z,-4.80
2019-01-22T02:35:42.023Z,-4.90
2019-01-22T02:38:39.353Z,-4.90
2019-01-22T02:41:15.077Z,-4.90
2019-01-22T02:43:51.005Z,-5.00
2019-01-22T02:46:20.955Z,-5.10
2019-01-22T02:49:00.004Z,-5.20
2019-01-22T02:51:39.869Z,-5.20
2019-01-22T02:54:08.657Z,-5.30
2019-01-22T02:56:44.546Z,-5.40
2019-01-22T02:59:35.991Z,-5.30
2019-01-22T03:02:25.162Z,-5.20
2019-01-22T03:05:01.196Z,-5.20
2019-01-22T03:07:34.178Z,-5.10
2019-01-22T03:10:22.524Z,-5.10
2019-01-22T03:12:58.689Z,-4.90
2019-01-22T03:15:45.450Z,-4.80
2019-01-22T03:18:35.346Z,-4.70
2019-01-22T03:21:11.303Z,-4.60
2019-01-22T03:23:46.365Z,-4.60
2019-01-22T03:26:39.377Z,-4.70
2019-01-22T03:29:30.652Z,-4.60
2019-01-22T03:32:03.263Z,-4.60
2019-01-22T03:34:39.327Z,-4.60
2019-01-22T03:37:27.161Z,-4.50
2019-01-22T03:39:57.331Z,-4.50
2019-01-22T03:42:32.970Z,-4.30
2019-01-22T03:45:27.154Z,-4.30
2019-01-22T03:48:31.379Z,-4.50
2019-01-22T03:51:04.519Z,-4.30
2019-01-22T03:53:57.368Z,-4.30
2019-01-22T03:56:46.821Z,-4.50
2019-01-22T03:59:13.004Z,-4.70
2019-01-22T04:01:39.112Z,-4.60
2019-01-22T04:04:05.453Z,-4.50
2019-01-22T04:06:31.852Z,-4.40
2019-01-22T04:08:59.910Z,-4.50
2019-01-22T04:11:27.819Z,-4.60
2019-01-22T04:13:53.973Z,-4.60
2019-01-22T04:16:20.148Z,-4.60
2019-01-22T04:18:46.758Z,-4.50
2019-01-22T04:21:15.676Z,-4.60
2019-01-22T04:23:45.745Z,-4.50
2019-01-22T04:26:21.513Z,-4.60
2019-01-22T04:29:08.163Z,-4.60
2019-01-22T04:31:38.139Z,-4.60
2019-01-22T04:34:29.646Z,-4.70
2019-01-22T04:37:24.077Z,-4.60
2019-01-22T04:40:00.165Z,-4.70
2019-01-22T04:42:45.218Z,-4.50
2019-01-22T04:45:24.290Z,-4.40
2019-01-22T04:48:29.557Z,-4.50
2019-01-22T04:51:17.441Z,-4.40
2019-01-22T04:53:53.258Z,-4.50
2019-01-22T04:56:32.260Z,-4.40
2019-01-22T04:59:05.256Z,-4.30
2019-01-22T05:01:43.958Z,-4.20
2019-01-22T05:04:16.537Z,-4.20
2019-01-22T05:06:52.896Z,-4.10
2019-01-22T05:09:31.794Z,-4.00
2019-01-22T05:12:14.391Z,-4.00
2019-01-22T05:14:50.480Z,-4.00
2019-01-22T05:17:32.119Z,-3.80
2019-01-22T05:20:02.143Z,-3.80
2019-01-22T05:22:44.103Z,-3.90
2019-01-22T05:25:29.183Z,-3.80
2019-01-22T05:28:02.117Z,-3.80
2019-01-22T05:30:32.016Z,-3.70
2019-01-22T05:33:16.832Z,-3.80
2019-01-22T05:35:46.847Z,-3.70
2019-01-22T05:38:31.284Z,-3.60
2019-01-22T05:41:24.374Z,-3.60
2019-01-22T05:43:54.397Z,-3.50
2019-01-22T05:46:24.282Z,-3.40
2019-01-22T05:48:57.396Z,-3.40
2019-01-22T05:51:27.304Z,-3.40
2019-01-22T05:54:15.450Z,-3.40
2019-01-22T05:56:48.371Z,-3.50
2019-01-22T05:59:53.429Z,-3.60
2019-01-22T06:02:21.252Z,-3.60
2019-01-22T06:05:08.386Z,-3.50
2019-01-22T06:07:38.370Z,-3.40
2019-01-22T06:10:14.126Z,-3.30
2019-01-22T06:12:44.023Z,-3.40
2019-01-22T06:15:28.468Z,-3.40
2019-01-22T06:18:04.192Z,-3.40
2019-01-22T06:20:37.261Z,-3.30
2019-01-22T06:23:07.196Z,-3.40
2019-01-22T06:25:49.751Z,-3.30
2019-01-22T06:28:54.951Z,-3.40
2019-01-22T06:31:51.263Z,-3.40
2019-01-22T06:34:39.434Z,-3.40
2019-01-22T06:37:12.334Z,-3.30
2019-01-22T06:40:09.732Z,-3.30
2019-01-22T06:42:57.681Z,-3.30
2019-01-22T06:45:44.458Z,-3.40
2019-01-22T06:48:29.627Z,-3.40
2019-01-22T06:51:05.663Z,-3.30
2019-01-22T06:53:53.696Z,-3.40
2019-01-22T06:56:42.126Z,-3.40
2019-01-22T06:59:29.677Z,-3.40
2019-01-22T07:02:11.861Z,-3.40
2019-01-22T07:04:41.820Z,-3.30
2019-01-22T07:07:21.032Z,-3.30
2019-01-22T07:10:02.817Z,-3.30
2019-01-22T07:12:38.748Z,-3.30
2019-01-22T07:15:11.398Z,-3.30
2019-01-22T07:17:59.619Z,-3.20
2019-01-22T07:20:55.644Z,-3.30
2019-01-22T07:23:34.742Z,-3.20
2019-01-22T07:26:04.707Z,-3.20
2019-01-22T07:28:34.727Z,-3.30
2019-01-22T07:31:13.347Z,-3.30
2019-01-22T07:33:46.001Z,-3.20
2019-01-22T07:36:36.026Z,-3.10
2019-01-22T07:39:20.650Z,-3.10
2019-01-22T07:42:05.835Z,-3.00
2019-01-22T07:44:39.129Z,-3.10
2019-01-22T07:47:14.678Z,-3.10
2019-01-22T07:50:00.345Z,-3.10
2019-01-22T07:52:39.550Z,-3.00
2019-01-22T07:55:27.664Z,-3.00
2019-01-22T07:58:14.181Z,-3.00
2019-01-22T08:00:56.251Z,-3.00
2019-01-22T08:04:03.250Z,-3.10
2019-01-22T08:06:53.177Z,-3.20
2019-01-22T08:09:29.197Z,-3.10
2019-01-22T08:12:02.348Z,-3.00
2019-01-22T08:14:35.337Z,-2.90
2019-01-22T08:17:11.391Z,-2.80
2019-01-22T08:19:49.820Z,-2.80
2019-01-22T08:22:41.043Z,-2.80
2019-01-22T08:25:15.021Z,-2.90
2019-01-22T08:27:51.249Z,-2.90
2019-01-22T08:30:21.439Z,-2.80
2019-01-22T08:33:03.307Z,-2.80
2019-01-22T08:35:48.743Z,-2.70
2019-01-22T08:38:37.195Z,-2.70
2019-01-22T08:41:16.059Z,-2.70
2019-01-22T08:43:51.991Z,-2.80
2019-01-22T08:46:27.828Z,-2.90
2019-01-22T08:48:57.841Z,-2.80
2019-01-22T08:51:42.318Z,-2.80
2019-01-22T08:54:46.083Z,-2.80
2019-01-22T08:57:42.021Z,-2.90
2019-01-22T09:00:16.669Z,-2.70
2019-01-22T09:02:43.761Z,-2.80
2019-01-22T09:05:22.990Z,-2.80
2019-01-22T09:08:11.143Z,-2.90
2019-01-22T09:10:47.202Z,-2.90
2019-01-22T09:13:38.693Z,-3.00
2019-01-22T09:16:14.428Z,-3.10
2019-01-22T09:19:06.914Z,-3.10
2019-01-22T09:21:36.878Z,-3.10
2019-01-22T09:24:13.258Z,-3.10
2019-01-22T09:26:43.214Z,-3.10
2019-01-22T09:29:28.563Z,-3.00
2019-01-22T09:32:32.185Z,-3.00
2019-01-22T09:35:26.360Z,-2.90
2019-01-22T09:37:53.040Z,-2.90
2019-01-22T09:40:19.246Z,-3.00
2019-01-22T09:42:45.616Z,-3.00
2019-01-22T09:45:11.782Z,-3.00
2019-01-22T09:47:37.939Z,-3.00
2019-01-22T09:50:07.175Z,-3.00
2019-01-22T09:52:33.381Z,-2.80
2019-01-22T09:54:59.527Z,-2.80
2019-01-22T09:57:25.755Z,-2.60
2019-01-22T09:59:51.819Z,-2.50
2019-01-22T10:02:17.938Z,-2.60
2019-01-22T10:04:44.062Z,-2.70
2019-01-22T10:07:10.149Z,-2.70
2019-01-22T10:09:36.306Z,-2.80
2019-01-22T10:12:03.186Z,-3.00
2019-01-22T10:14:29.336Z,-2.90
2019-01-22T10:16:55.518Z,-2.90
2019-01-22T10:19:21.661Z,-3.00
2019-01-22T10:21:47.740Z,-3.10
2019-01-22T10:24:13.880Z,-3.10
2019-01-22T10:26:40.284Z,-3.10
2019-01-22T10:29:12.974Z,-3.20
2019-01-22T10:31:39.084Z,-2.90
2019-01-22T10:34:05.203Z,-2.80
2019-01-22T10:36:31.338Z,-2.90
2019-01-22T10:38:57.506Z,-2.90
2019-01-22T10:41:23.588Z,-2.90
2019-01-22T10:43:49.737Z,-2.90
2019-01-22T10:46:15.878Z,-2.90
2019-01-22T10:48:42.013Z,-2.80
2019-01-22T10:51:08.230Z,-2.90
2019-01-22T10:53:34.327Z,-2.90
2019-01-22T10:56:00.472Z,-2.80
2019-01-22T10:58:26.546Z,-2.80
2019-01-22T11:00:52.676Z,-2.80
2019-01-22T11:03:18.812Z,-2.80
2019-01-22T11:05:45.164Z,-2.80
2019-01-22T11:08:11.384Z,-2.80
2019-01-22T11:10:37.595Z,-2.80
2019-01-22T11:13:04.242Z,-2.70
2019-01-22T11:15:30.571Z,-2.90
2019-01-22T11:17:56.773Z,-2.90
2019-01-22T11:20:27.496Z,-3.10
2019-01-22T11:22:53.663Z,-2.90
2019-01-22T11:25:23.085Z,-2.80
2019-01-22T11:27:49.232Z,-2.70
2019-01-22T11:30:18.661Z,-2.70
2019-01-22T11:32:45.067Z,-2.80
2019-01-22T11:35:14.969Z,-2.80
2019-01-22T11:37:41.197Z,-2.90
2019-01-22T11:40:11.077Z,-2.90
2019-01-22T11:42:37.415Z,-2.70
2019-01-22T11:45:06.115Z,-2.80
2019-01-22T11:47:32.207Z,-2.80
2019-01-22T11:49:58.348Z,-2.80
2019-01-22T11:52:24.449Z,-3.00
2019-01-22T11:54:50.643Z,-2.80
2019-01-22T11:57:16.718Z,-2.60
2019-01-22T11:59:42.815Z,-2.60
2019-01-22T12:02:09.008Z,-2.50
2019-01-22T12:04:35.164Z,-2.50
2019-01-22T12:07:01.318Z,-2.50
2019-01-22T12:09:27.495Z,-2.40
2019-01-22T12:11:53.691Z,-2.40
2019-01-22T12:14:19.789Z,-2.40
2019-01-22T12:16:45.901Z,-2.40
2019-01-22T12:19:11.991Z,-2.30
2019-01-22T12:21:38.230Z,-2.40
2019-01-22T12:24:04.452Z,-2.30
2019-01-22T12:26:30.518Z,-2.30
2019-01-22T12:28:56.644Z,-2.40
2019-01-22T12:31:22.893Z,-2.50
2019-01-22T12:33:49.104Z,-2.60
2019-01-22T12:36:15.302Z,-2.60
2019-01-22T12:38:41.409Z,-2.70
2019-01-22T12:41:07.538Z,-2.80
2019-01-22T12:43:33.672Z,-2.80
2019-01-22T12:46:00.005Z,-2.90
2019-01-22T12:48:26.130Z,-2.80
2019-01-22T12:50:52.339Z,-2.70
2019-01-22T12:53:18.417Z,-2.60
2019-01-22T12:55:44.564Z,-2.70
2019-01-22T12:58:10.687Z,-2.60
2019-01-22T13:00:37.534Z,-2.60
2019-01-22T13:03:04.161Z,-2.60
2019-01-22T13:05:45.039Z,-2.50
2019-01-22T13:08:11.236Z,-2.60
2019-01-22T13:10:37.673Z,-2.60
2019-01-22T13:13:04.160Z,-2.40
2019-01-22T13:15:30.391Z,-2.50
2019-01-22T13:17:56.543Z,-2.60
2019-01-22T13:20:23.928Z,-2.70
2019-01-22T13:22:50.102Z,-2.60
2019-01-22T13:25:16.484Z,-2.60
2019-01-22T13:27:42.778Z,-2.50
2019-01-22T13:30:12.752Z,-2.50
2019-01-22T13:32:38.837Z,-2.60
2019-01-22T13:35:06.281Z,-2.50
2019-01-22T13:37:32.517Z,-2.50
2019-01-22T13:39:58.595Z,-2.50
2019-01-22T13:42:24.750Z,-2.50
2019-01-22T13:44:50.829Z,-2.50
2019-01-22T13:47:16.988Z,-2.40
2019-01-22T13:49:43.203Z,-2.50
2019-01-22T13:52:09.341Z,-2.50
2019-01-22T13:54:35.841Z,-2.50
2019-01-22T13:57:01.970Z,-2.40
2019-01-22T13:59:28.083Z,-2.40
2019-01-22T14:01:54.260Z,-2.20
2019-01-22T14:04:20.383Z,-2.30
2019-01-22T14:06:46.606Z,-2.20
2019-01-22T14:09:12.908Z,-2.30
2019-01-22T14:11:39.141Z,-2.30
2019-01-22T14:14:05.376Z,-2.40
2019-01-22T14:16:31.556Z,-2.50
2019-01-22T14:18:57.701Z,-2.60
2019-01-22T14:21:23.781Z,-2.60
2019-01-22T14:23:49.907Z,-2.40
2019-01-22T14:26:15.988Z,-2.30
2019-01-22T14:28:42.147Z,-2.20
2019-01-22T14:31:08.315Z,-2.30
2019-01-22T14:33:34.475Z,-2.40
2019-01-22T14:36:00.948Z,-2.40
2019-01-22T14:38:27.060Z,-2.30
2019-01-22T14:40:53.308Z,-2.30
2019-01-22T14:43:19.542Z,-2.40
2019-01-22T14:45:45.655Z,-2.60
2019-01-22T14:48:11.838Z,-2.50
2019-01-22T14:50:38.102Z,-2.60
2019-01-22T14:53:04.274Z,-2.50
2019-01-22T14:55:30.398Z,-2.40
2019-01-22T14:57:56.609Z,-2.30
2019-01-22T15:00:27.508Z,-2.30
2019-01-22T15:02:54.648Z,-2.30
2019-01-22T15:05:20.795Z,-2.40
2019-01-22T15:07:47.242Z,-2.40
2019-01-22T15:10:17.508Z,-2.40
2019-01-22T15:12:45.922Z,-2.40
2019-01-22T15:15:14.214Z,-2.30
2019-01-22T15:17:40.442Z,-2.30
2019-01-22T15:20:10.227Z,-2.20
2019-01-22T15:22:36.339Z,-2.30
2019-01-22T15:25:05.611Z,-2.30
2019-01-22T15:27:31.765Z,-2.20
2019-01-22T15:29:57.887Z,-2.20
2019-01-22T15:32:24.031Z,-2.20
2019-01-22T15:34:50.382Z,-2.10
2019-01-22T15:37:16.565Z,-2.30
2019-01-22T15:39:42.773Z,-2.30
2019-01-22T15:42:09.005Z,-2.20
